Time;durP1;ratioP1;P1;durP2;ratioP2;P2;SDS_P1;SDS_P2;PMS_P1;PMS_P2;Temp;Humidity;BMP_temperature;BMP_pressure;BME280_temperature;BME280_humidity;BME280_pressure;Samples;Min_cycle;Max_cycle;Signal;HPM_P1;HPM_P2
2021/11/28 00:02:16;;;;;;;30.57;15.17;;;;;;;11.82;57.91;98701.78;5035862;28;20235;-73
2021/11/28 00:04:42;;;;;;;28.07;16.43;;;;;;;11.76;57.39;98691.63;5018442;28;20177;-71
2021/11/28 00:07:20;;;;;;;30.87;17.13;;;;;;;11.96;57.65;98688.00;5001793;28;20233;-72
2021/11/28 00:13:00;;;;;;;34.37;16.57;;;;;;;12.25;57.05;98684.44;5035969;28;20191;-73
2021/11/28 00:15:25;;;;;;;27.33;15.97;;;;;;;12.51;55.68;98682.84;5022669;28;20168;-73
2021/11/28 00:17:50;;;;;;;28.33;15.53;;;;;;;12.63;55.92;98676.31;5017592;28;20180;-72
2021/11/28 00:20:16;;;;;;;33.63;17.10;;;;;;;12.17;57.13;98683.31;5001060;28;20204;-73
2021/11/28 00:22:42;;;;;;;33.00;16.90;;;;;;;12.07;56.88;98693.19;5016845;28;20199;-72
2021/11/28 00:25:10;;;;;;;30.23;17.07;;;;;;;12.32;57.41;98693.59;5017144;28;20229;-72
2021/11/28 00:27:38;;;;;;;30.30;16.97;;;;;;;12.35;57.09;98698.66;5001052;28;20528;-73
2021/11/28 00:30:06;;;;;;;28.37;16.77;;;;;;;12.74;56.45;98697.56;5000674;28;20657;-73
2021/11/28 00:32:31;;;;;;;32.67;17.50;;;;;;;12.86;55.47;98692.00;5000684;28;20200;-72
2021/11/28 00:34:57;;;;;;;31.90;16.73;;;;;;;12.00;57.03;98686.72;5017855;28;20203;-71
2021/11/28 00:37:22;;;;;;;29.17;16.63;;;;;;;12.58;56.00;98678.56;5017633;28;20181;-72
2021/11/28 00:39:48;;;;;;;29.83;18.23;;;;;;;12.80;56.18;98690.78;5000840;28;20689;-72
2021/11/28 00:42:14;;;;;;;32.43;17.63;;;;;;;12.46;56.64;98690.44;5034949;28;20168;-72
2021/11/28 00:44:40;;;;;;;30.07;16.97;;;;;;;11.50;57.22;98686.81;5017800;28;20208;-71
2021/11/28 00:47:06;;;;;;;27.23;15.13;;;;;;;12.04;57.07;98696.16;5001645;28;20212;-71
2021/11/28 00:49:33;;;;;;;31.23;17.23;;;;;;;12.52;56.55;98696.06;5018803;28;20199;-72
2021/11/28 00:51:58;;;;;;;34.23;17.67;;;;;;;12.76;56.08;98689.38;5029480;28;20728;-71
2021/11/28 00:54:25;;;;;;;29.70;17.83;;;;;;;13.04;55.75;98693.78;5033661;28;20184;-70
2021/11/28 00:56:52;;;;;;;33.47;17.60;;;;;;;13.08;55.74;98699.66;5033077;28;20169;-73
2021/11/28 00:59:18;;;;;;;31.27;16.93;;;;;;;12.97;55.41;98686.47;5033838;28;20207;-72
2021/11/28 01:01:43;;;;;;;31.07;17.83;;;;;;;12.48;56.26;98688.47;5016892;28;20176;-71
2021/11/28 01:04:09;;;;;;;30.00;17.83;;;;;;;12.27;57.12;98706.56;5007200;28;20200;-72
2021/11/28 01:06:34;;;;;;;33.87;17.90;;;;;;;12.68;55.95;98695.47;5016629;28;20750;-72
2021/11/28 01:09:00;;;;;;;37.17;19.23;;;;;;;12.73;56.02;98703.91;5015779;28;20239;-73
2021/11/28 01:11:26;;;;;;;37.67;18.10;;;;;;;12.82;56.24;98711.03;5016300;28;20165;-72
2021/11/28 01:13:52;;;;;;;33.10;17.83;;;;;;;12.53;56.75;98712.97;5007638;28;20181;-72
2021/11/28 01:16:19;;;;;;;31.50;18.23;;;;;;;13.00;55.87;98710.25;5028374;28;20187;-72
2021/11/28 01:18:44;;;;;;;35.00;18.77;;;;;;;12.97;55.30;98707.88;5008909;28;20198;-73
2021/11/28 01:21:09;;;;;;;34.00;18.60;;;;;;;12.19;57.49;98716.13;5026370;28;20574;-72
2021/11/28 01:23:35;;;;;;;31.23;18.03;;;;;;;12.41;57.73;98711.44;5020272;28;20530;-72
2021/11/28 01:26:00;;;;;;;36.63;19.23;;;;;;;11.91;57.83;98705.47;5016460;28;20176;-72
2021/11/28 01:28:25;;;;;;;36.20;18.53;;;;;;;12.46;56.84;98711.84;5016118;28;20554;-72
2021/11/28 01:30:51;;;;;;;35.77;19.17;;;;;;;11.93;58.27;98723.03;5033033;28;20184;-71
2021/11/28 01:33:16;;;;;;;36.40;19.70;;;;;;;12.91;56.42;98717.34;4999384;28;20200;-73
2021/11/28 01:35:42;;;;;;;39.17;20.53;;;;;;;11.64;59.51;98735.50;5015950;28;20208;-71
2021/11/28 01:38:07;;;;;;;36.73;19.70;;;;;;;12.42;57.63;98715.81;5033339;28;20191;-72
2021/11/28 01:40:32;;;;;;;37.60;19.30;;;;;;;12.99;56.35;98717.44;5016208;28;20219;-71
2021/11/28 01:43:04;;;;;;;44.70;21.03;;;;;;;13.18;55.97;98721.06;5025254;28;20169;-70
2021/11/28 01:45:31;;;;;;;47.47;22.20;;;;;;;12.69;57.09;98721.25;5011812;28;20202;-71
2021/11/28 01:47:58;;;;;;;38.33;21.10;;;;;;;13.02;56.68;98719.00;5017676;28;20205;-72
2021/11/28 01:50:27;;;;;;;42.80;21.43;;;;;;;12.27;56.69;98717.25;4999152;28;20288;-72
2021/11/28 01:52:53;;;;;;;40.33;20.70;;;;;;;12.23;58.33;98730.03;5015567;28;20196;-73
2021/11/28 01:55:25;;;;;;;39.47;20.90;;;;;;;12.91;55.97;98716.50;5018912;28;20181;-72
2021/11/28 01:57:51;;;;;;;38.40;20.97;;;;;;;13.00;56.44;98721.81;5019511;28;20586;-72
2021/11/28 02:00:26;;;;;;;37.70;19.97;;;;;;;12.55;56.28;98710.13;5002867;28;20228;-72
2021/11/28 02:02:52;;;;;;;38.40;19.50;;;;;;;12.96;56.35;98720.41;5019388;28;20168;-72
2021/11/28 02:05:18;;;;;;;53.23;22.30;;;;;;;13.08;56.57;98718.41;5003121;28;20177;-72
2021/11/28 02:07:44;;;;;;;36.33;19.63;;;;;;;12.90;56.35;98712.13;5019356;28;20203;-72
2021/11/28 02:10:10;;;;;;;41.47;20.20;;;;;;;12.92;56.53;98710.16;5019044;28;20208;-72
2021/11/28 02:12:36;;;;;;;38.13;20.07;;;;;;;12.95;55.97;98702.66;5019049;28;20271;-72
2021/11/28 02:15:02;;;;;;;40.97;21.27;;;;;;;12.68;57.06;98710.69;5018955;28;20181;-71
2021/11/28 02:17:28;;;;;;;40.37;20.20;;;;;;;12.65;55.83;98692.25;5036837;28;20188;-72
2021/11/28 02:19:53;;;;;;;45.70;21.53;;;;;;;12.86;55.65;98697.38;5035290;28;20414;-72
2021/11/28 02:22:19;;;;;;;40.43;20.60;;;;;;;13.42;55.70;98711.50;5002519;28;20177;-71
2021/11/28 02:24:45;;;;;;;41.30;20.50;;;;;;;13.11;56.45;98707.41;5018977;28;20177;-71
2021/11/28 02:27:10;;;;;;;35.00;18.77;;;;;;;13.13;55.41;98700.06;5018729;28;20700;-72
2021/11/28 02:29:40;;;;;;;39.60;20.20;;;;;;;13.36;56.10;98709.41;5018803;28;20205;-71
2021/11/28 02:32:06;;;;;;;38.27;19.77;;;;;;;13.43;55.67;98707.81;5018585;28;20201;-71
2021/11/28 02:34:31;;;;;;;34.50;19.23;;;;;;;13.47;55.70;98703.00;5018716;28;20542;-72
2021/11/28 02:36:57;;;;;;;42.30;22.10;;;;;;;13.34;56.10;98703.34;5018661;28;20527;-71
2021/11/28 02:39:22;;;;;;;40.93;20.10;;;;;;;13.29;55.84;98702.13;5018622;28;20204;-71
2021/11/28 02:41:48;;;;;;;44.53;20.17;;;;;;;12.85;57.58;98707.22;5036026;28;20186;-73
2021/11/28 02:44:15;;;;;;;35.67;19.83;;;;;;;12.86;57.82;98706.25;5018694;28;20181;-73
2021/11/28 02:46:41;;;;;;;39.90;19.20;;;;;;;12.88;56.76;98690.03;5036018;28;20231;-73
2021/11/28 02:49:07;;;;;;;40.10;19.90;;;;;;;12.53;57.22;98691.56;5002018;28;20785;-73
2021/11/28 02:51:37;;;;;;;36.43;19.10;;;;;;;12.72;57.94;98699.53;5018390;28;20255;-73
2021/11/28 02:54:03;;;;;;;31.77;18.47;;;;;;;13.07;56.87;98689.94;5001943;28;20177;-72
2021/11/28 02:56:28;;;;;;;34.13;19.37;;;;;;;12.45;58.03;98694.13;5018123;28;20235;-71
2021/11/28 02:58:54;;;;;;;34.50;18.90;;;;;;;12.75;58.19;98695.72;5018557;28;20201;-70
2021/11/28 03:01:20;;;;;;;32.87;18.37;;;;;;;12.23;58.92;98705.13;5019238;28;20534;-71
2021/11/28 03:03:46;;;;;;;39.63;19.53;;;;;;;12.67;57.88;98698.28;5002118;28;20677;-73
2021/11/28 03:06:11;;;;;;;36.70;18.93;;;;;;;12.37;58.08;98702.03;5002099;28;20181;-72
2021/11/28 03:11:03;;;;;;;35.78;19.63;;;;;;;12.92;57.38;98708.31;5076406;22;20647;-73
2021/11/28 03:13:32;;;;;;;35.57;19.23;;;;;;;13.30;57.14;98711.84;5037600;28;20196;-73
2021/11/28 03:16:03;;;;;;;35.33;18.70;;;;;;;12.82;57.41;98700.34;5038046;28;20227;-73
2021/11/28 03:18:30;;;;;;;36.47;18.40;;;;;;;12.17;58.44;98712.75;5037497;28;20639;-73
2021/11/28 03:21:01;;;;;;;31.00;17.90;;;;;;;12.34;59.44;98723.72;5037449;28;20217;-73
2021/11/28 03:23:30;;;;;;;37.40;19.37;;;;;;;12.66;58.07;98720.69;5055637;28;20188;-73
2021/11/28 03:26:10;;;;;;;38.90;19.50;;;;;;;12.09;59.88;98727.81;5037523;28;20174;-73
2021/11/28 03:28:37;;;;;;;35.23;19.73;;;;;;;11.95;59.91;98725.56;5020767;28;20237;-73
2021/11/28 03:31:03;;;;;;;38.63;19.37;;;;;;;11.90;60.61;98723.31;5037105;28;20177;-73
2021/11/28 03:33:28;;;;;;;42.93;18.30;;;;;;;12.41;59.02;98714.13;5036891;28;20192;-73
2021/11/28 03:35:54;;;;;;;34.97;18.77;;;;;;;12.37;58.82;98718.91;5037459;28;20533;-72
2021/11/28 03:38:19;;;;;;;35.23;18.63;;;;;;;12.44;59.10;98705.81;5036866;28;20231;-72
2021/11/28 03:40:44;;;;;;;38.50;19.20;;;;;;;11.44;61.14;98722.09;5037164;28;20556;-73
2021/11/28 03:43:10;;;;;;;35.13;17.50;;;;;;;11.61;60.64;98719.75;5036874;28;20173;-73
2021/11/28 03:45:35;;;;;;;35.53;18.53;;;;;;;11.93;59.87;98722.19;5054599;28;20713;-72
2021/11/28 03:48:01;;;;;;;37.07;18.47;;;;;;;11.72;59.83;98724.97;5036691;28;20179;-73
2021/11/28 03:50:26;;;;;;;35.63;18.07;;;;;;;11.13;61.17;98723.13;5036538;28;20245;-72
2021/11/28 03:52:51;;;;;;;34.90;19.20;;;;;;;11.75;60.55;98730.88;5036854;28;20218;-73
2021/11/28 03:55:18;;;;;;;41.70;21.60;;;;;;;11.55;61.64;98737.19;5036673;28;20230;-73
2021/11/28 03:57:43;;;;;;;39.37;20.87;;;;;;;11.76;60.76;98734.38;5036981;28;20192;-72
2021/11/28 04:00:10;;;;;;;43.17;20.80;;;;;;;12.02;60.74;98729.38;5020104;28;20704;-74
2021/11/28 04:02:36;;;;;;;41.40;20.97;;;;;;;11.55;61.13;98731.84;5036693;28;20177;-72
2021/11/28 04:05:01;;;;;;;42.30;20.87;;;;;;;12.10;59.97;98734.84;5019961;28;20176;-73
2021/11/28 04:07:27;;;;;;;41.17;21.07;;;;;;;12.59;58.90;98728.44;5054134;28;20596;-73
2021/11/28 04:09:52;;;;;;;37.13;20.67;;;;;;;12.00;60.86;98745.56;5053914;28;20208;-73
2021/11/28 04:12:17;;;;;;;33.53;20.13;;;;;;;11.93;60.07;98732.91;5053964;28;20196;-73
2021/11/28 04:14:43;;;;;;;42.93;19.67;;;;;;;11.15;62.11;98745.19;5053894;28;20245;-72
2021/11/28 04:17:08;;;;;;;39.07;19.57;;;;;;;11.75;60.67;98743.38;5018935;28;20171;-73
2021/11/28 04:19:34;;;;;;;40.77;20.73;;;;;;;11.40;61.69;98746.56;5035980;28;20282;-72
2021/11/28 04:21:59;;;;;;;41.70;21.43;;;;;;;11.10;62.33;98737.59;5036652;28;20176;-72
2021/11/28 04:24:25;;;;;;;51.07;22.83;;;;;;;11.11;62.49;98739.28;5036035;28;20692;-71
2021/11/28 04:26:50;;;;;;;49.53;23.27;;;;;;;10.92;62.70;98731.22;5053735;28;20293;-72
2021/11/28 04:29:17;;;;;;;43.67;22.50;;;;;;;11.17;61.57;98727.25;5035807;28;20200;-72
2021/11/28 04:31:43;;;;;;;49.53;22.27;;;;;;;11.14;62.02;98739.00;5053728;28;20672;-72
2021/11/28 04:34:08;;;;;;;42.03;21.57;;;;;;;11.11;61.92;98733.09;5036009;28;20182;-73
2021/11/28 04:36:33;;;;;;;49.43;22.83;;;;;;;11.02;62.60;98739.25;5053622;28;20184;-73
2021/11/28 04:38:59;;;;;;;49.77;25.23;;;;;;;11.74;60.98;98747.03;5036172;28;20592;-72
2021/11/28 04:41:24;;;;;;;47.23;23.87;;;;;;;11.70;60.51;98748.31;5035656;28;20648;-73
2021/11/28 04:43:49;;;;;;;45.70;23.97;;;;;;;11.70;60.36;98750.97;5035770;28;20642;-73
2021/11/28 04:46:15;;;;;;;46.37;23.73;;;;;;;10.95;61.75;98749.63;5035837;28;20230;-73
2021/11/28 04:48:40;;;;;;;50.80;25.43;;;;;;;10.42;62.71;98739.09;5053623;28;20172;-72
2021/11/28 04:51:05;;;;;;;52.03;24.67;;;;;;;10.94;62.91;98743.44;5035855;28;20176;-72
2021/11/28 04:53:30;;;;;;;52.63;24.27;;;;;;;10.89;61.77;98751.00;5053521;28;20246;-72
2021/11/28 04:55:56;;;;;;;51.53;25.20;;;;;;;11.80;61.15;98747.34;5053303;28;20173;-72
2021/11/28 04:58:21;;;;;;;52.40;24.80;;;;;;;11.19;61.94;98746.66;5035797;28;20522;-71
2021/11/28 05:00:46;;;;;;;47.97;23.03;;;;;;;11.29;61.12;98742.16;5018974;28;20203;-71
2021/11/28 05:03:12;;;;;;;56.80;24.23;;;;;;;11.22;61.22;98752.56;5035464;28;20178;-71
2021/11/28 05:05:37;;;;;;;61.23;24.17;;;;;;;11.15;61.44;98739.84;5035658;28;20177;-71
2021/11/28 05:08:03;;;;;;;47.03;23.13;;;;;;;11.69;60.29;98738.59;5035596;28;20167;-70
2021/11/28 05:10:28;;;;;;;47.57;24.40;;;;;;;11.46;61.19;98744.16;5018741;28;20208;-72
2021/11/28 05:12:53;;;;;;;52.47;26.83;;;;;;;11.27;61.38;98749.47;5053226;28;20661;-71
2021/11/28 05:15:19;;;;;;;59.77;26.93;;;;;;;10.90;61.80;98758.03;5035279;28;20641;-71
2021/11/28 05:17:45;;;;;;;54.83;24.50;;;;;;;11.24;60.59;98755.94;5035223;28;20229;-71
2021/11/28 05:20:10;;;;;;;60.13;25.67;;;;;;;11.78;60.93;98761.84;5035380;28;20219;-71
2021/11/28 05:22:36;;;;;;;52.03;26.60;;;;;;;11.51;60.39;98755.28;5018672;28;20222;-71
2021/11/28 05:25:02;;;;;;;49.27;23.90;;;;;;;11.46;61.36;98757.53;5035055;28;20229;-71
2021/11/28 05:27:27;;;;;;;45.83;22.40;;;;;;;11.38;60.93;98749.34;5052712;28;20175;-71
2021/11/28 05:29:53;;;;;;;49.33;24.67;;;;;;;11.50;60.84;98756.25;5018453;28;20195;-71
2021/11/28 05:32:18;;;;;;;50.23;24.63;;;;;;;11.61;60.59;98768.69;5053004;28;20200;-71
2021/11/28 05:34:43;;;;;;;59.63;24.47;;;;;;;12.09;59.60;98763.41;5052995;28;20254;-71
2021/11/28 05:37:11;;;;;;;55.93;23.60;;;;;;;10.86;61.81;98772.63;5018320;28;20178;-72
2021/11/28 05:39:36;;;;;;;44.33;22.83;;;;;;;10.51;61.98;98759.66;5035744;28;20188;-71
2021/11/28 05:42:01;;;;;;;46.33;22.83;;;;;;;11.10;61.43;98777.66;5018422;28;20168;-71
2021/11/28 05:44:27;;;;;;;53.93;25.10;;;;;;;11.19;61.71;98781.34;5035323;28;20238;-71
2021/11/28 05:46:52;;;;;;;51.33;24.00;;;;;;;10.59;61.40;98778.50;5034875;28;20245;-71
2021/11/28 05:49:18;;;;;;;52.77;25.10;;;;;;;11.62;60.32;98777.53;5052954;28;20199;-71
2021/11/28 05:51:43;;;;;;;45.20;23.50;;;;;;;11.77;59.02;98785.03;5052629;28;20197;-71
2021/11/28 05:54:09;;;;;;;42.50;22.77;;;;;;;11.14;60.92;98786.22;5034898;28;20176;-71
2021/11/28 05:56:34;;;;;;;48.77;24.20;;;;;;;11.96;59.21;98784.25;5034852;28;20168;-71
2021/11/28 05:59:00;;;;;;;40.10;22.13;;;;;;;11.76;59.37;98779.81;5055909;28;20198;-72
2021/11/28 06:01:25;;;;;;;45.33;21.97;;;;;;;11.44;59.48;98777.34;5040006;28;20176;-71
2021/11/28 06:03:50;;;;;;;45.83;22.37;;;;;;;10.92;60.06;98780.09;5054874;28;20181;-71
2021/11/28 06:06:16;;;;;;;46.53;23.80;;;;;;;11.53;60.06;98782.75;5053047;28;20642;-70
2021/11/28 06:08:41;;;;;;;48.53;22.37;;;;;;;11.28;59.48;98780.53;5035270;28;20190;-70
2021/11/28 06:11:07;;;;;;;52.93;23.70;;;;;;;11.89;59.10;98778.63;5035217;28;20175;-70
2021/11/28 06:13:32;;;;;;;42.70;24.27;;;;;;;11.86;59.17;98786.88;5035563;28;20187;-71
2021/11/28 06:15:58;;;;;;;58.07;24.33;;;;;;;12.70;57.17;98783.66;5037584;28;20175;-70
2021/11/28 06:18:23;;;;;;;47.47;22.77;;;;;;;11.51;59.79;98784.66;5035821;28;20176;-70
2021/11/28 06:20:49;;;;;;;42.37;21.00;;;;;;;11.25;59.20;98786.16;5018818;28;20203;-70
2021/11/28 06:23:14;;;;;;;40.73;22.20;;;;;;;12.05;59.38;98796.78;5054007;28;20172;-71
2021/11/28 06:25:39;;;;;;;44.03;21.70;;;;;;;11.10;60.68;98798.16;5053142;28;20179;-71
2021/11/28 06:28:05;;;;;;;41.70;21.67;;;;;;;11.24;60.02;98793.31;5035417;28;20215;-71
2021/11/28 06:30:30;;;;;;;43.20;22.20;;;;;;;11.69;60.00;98803.56;5052802;28;20196;-71
2021/11/28 06:32:57;;;;;;;41.77;21.83;;;;;;;11.92;58.85;98804.22;5052584;28;20188;-71
2021/11/28 06:35:22;;;;;;;47.27;23.97;;;;;;;11.85;58.90;98800.38;5053437;28;20168;-71
2021/11/28 06:37:47;;;;;;;39.93;22.07;;;;;;;11.51;58.92;98794.50;5054790;28;20255;-71
2021/11/28 06:40:13;;;;;;;38.23;22.40;;;;;;;12.41;57.88;98805.09;5054753;28;20191;-71
2021/11/28 06:42:38;;;;;;;47.13;22.47;;;;;;;12.20;57.91;98797.19;5038961;28;20205;-71
2021/11/28 06:45:04;;;;;;;41.27;21.70;;;;;;;12.34;57.90;98803.97;5064435;28;20211;-71
2021/11/28 06:47:30;;;;;;;50.80;23.57;;;;;;;11.75;58.45;98802.19;5059105;28;20172;-69
2021/11/28 06:49:55;;;;;;;53.47;23.23;;;;;;;12.00;58.87;98804.38;5066606;28;20199;-70
2021/11/28 06:52:20;;;;;;;44.80;21.83;;;;;;;11.14;59.62;98797.75;5057722;28;20195;-71
2021/11/28 06:54:46;;;;;;;39.17;20.73;;;;;;;10.68;59.42;98790.22;5039346;28;20184;-70
2021/11/28 06:57:11;;;;;;;38.80;21.00;;;;;;;10.26;62.84;98818.69;5039432;28;20177;-71
2021/11/28 06:59:36;;;;;;;38.93;20.83;;;;;;;11.71;59.29;98814.13;5056980;28;20203;-71
2021/11/28 07:02:02;;;;;;;40.47;21.37;;;;;;;10.13;61.37;98810.00;5056830;28;20174;-71
2021/11/28 07:04:28;;;;;;;44.10;21.77;;;;;;;10.62;60.69;98812.09;5038811;28;20176;-72
2021/11/28 07:06:53;;;;;;;43.93;21.73;;;;;;;11.63;59.10;98820.16;5056438;28;20176;-71
2021/11/28 07:09:18;;;;;;;41.17;20.37;;;;;;;11.03;59.27;98810.34;5038189;28;20252;-72
2021/11/28 07:11:43;;;;;;;40.97;20.40;;;;;;;11.69;59.05;98827.63;5056018;28;20161;-70
2021/11/28 07:14:09;;;;;;;37.70;20.40;;;;;;;12.05;58.07;98820.84;5055534;28;20172;-71
2021/11/28 07:16:34;;;;;;;37.70;18.60;;;;;;;11.00;58.07;98798.13;5055775;28;20175;-71
2021/11/28 07:18:59;;;;;;;33.63;19.07;;;;;;;10.75;59.01;98822.53;5055790;28;20191;-71
2021/11/28 07:21:25;;;;;;;34.30;20.03;;;;;;;10.86;60.63;98841.19;5055723;28;20176;-71
2021/11/28 07:23:50;;;;;;;38.13;19.77;;;;;;;11.12;59.94;98836.25;5055789;28;20215;-71
2021/11/28 07:26:16;;;;;;;44.93;20.67;;;;;;;11.60;57.69;98831.13;5055216;28;20175;-71
2021/11/28 07:28:42;;;;;;;38.97;21.03;;;;;;;10.46;61.01;98839.22;5055382;28;20178;-71
2021/11/28 07:31:08;;;;;;;41.13;20.63;;;;;;;11.24;59.38;98835.19;5055103;28;20606;-72
2021/11/28 07:33:36;;;;;;;39.47;20.23;;;;;;;12.63;56.79;98836.03;5037224;28;20192;-73
2021/11/28 07:36:02;;;;;;;35.33;20.43;;;;;;;11.54;58.64;98842.34;5021360;28;20179;-72
2021/11/28 07:38:27;;;;;;;37.60;20.23;;;;;;;12.09;57.23;98840.13;5037212;28;20274;-72
2021/11/28 07:40:53;;;;;;;33.23;18.77;;;;;;;12.09;57.22;98840.13;5054948;28;20191;-72
2021/11/28 07:43:18;;;;;;;38.33;18.67;;;;;;;11.46;59.05;98837.66;5055159;28;20660;-72
2021/11/28 07:45:43;;;;;;;37.97;19.07;;;;;;;11.44;58.34;98836.97;5055205;28;20179;-72
2021/11/28 07:48:10;;;;;;;33.83;17.50;;;;;;;10.92;58.46;98827.31;5054969;28;20176;-72
2021/11/28 07:50:35;;;;;;;27.70;17.70;;;;;;;9.58;61.85;98841.13;5054500;28;20733;-72
2021/11/28 07:53:00;;;;;;;34.40;17.93;;;;;;;10.06;60.78;98833.66;5054283;28;20196;-72
2021/11/28 07:55:26;;;;;;;35.53;19.47;;;;;;;9.83;62.16;98848.84;5039022;28;20179;-72
2021/11/28 07:57:51;;;;;;;37.13;18.77;;;;;;;11.18;60.03;98836.59;5061809;28;20251;-72
2021/11/28 08:00:16;;;;;;;36.20;20.07;;;;;;;9.93;61.35;98843.59;5041790;28;20680;-71
2021/11/28 08:02:42;;;;;;;36.73;19.10;;;;;;;10.29;59.75;98840.59;5054633;28;20537;-71
2021/11/28 08:05:08;;;;;;;39.47;19.47;;;;;;;10.70;59.55;98835.44;5020166;28;20171;-72
2021/11/28 08:07:33;;;;;;;34.90;18.00;;;;;;;11.06;59.81;98842.97;5055138;28;20258;-72
2021/11/28 08:09:59;;;;;;;30.63;16.60;;;;;;;11.07;59.00;98833.13;5037037;28;20684;-72
2021/11/28 08:12:25;;;;;;;27.90;16.50;;;;;;;9.86;61.35;98845.91;5037119;28;20195;-71
2021/11/28 08:14:51;;;;;;;29.73;18.23;;;;;;;10.26;61.19;98850.69;5054862;28;20180;-71
2021/11/28 08:17:16;;;;;;;30.30;18.13;;;;;;;10.87;60.15;98845.53;5036572;28;20164;-70
2021/11/28 08:19:41;;;;;;;31.87;17.17;;;;;;;10.88;60.15;98853.41;5036835;28;20191;-71
2021/11/28 08:22:07;;;;;;;31.07;17.00;;;;;;;11.60;59.06;98852.50;5054414;28;20199;-71
2021/11/28 08:24:33;;;;;;;31.60;17.67;;;;;;;10.61;60.32;98853.06;5054620;28;20218;-71
2021/11/28 08:26:58;;;;;;;28.70;16.67;;;;;;;11.25;58.91;98847.56;5020044;28;20175;-72
2021/11/28 08:29:24;;;;;;;32.30;16.43;;;;;;;10.89;59.68;98841.75;5020107;28;20197;-71
2021/11/28 08:31:49;;;;;;;31.23;16.20;;;;;;;10.51;61.38;98854.81;5036408;28;20176;-71
2021/11/28 08:34:15;;;;;;;32.33;16.27;;;;;;;10.83;59.93;98852.97;5054101;28;20227;-72
2021/11/28 08:36:40;;;;;;;25.97;14.30;;;;;;;9.94;61.14;98858.63;5036327;28;20183;-72
2021/11/28 08:39:06;;;;;;;31.13;16.20;;;;;;;11.26;60.42;98868.81;5036026;28;20253;-72
2021/11/28 08:41:31;;;;;;;33.27;17.93;;;;;;;10.61;60.47;98863.75;5037234;28;20498;-71
2021/11/28 08:43:57;;;;;;;30.77;17.57;;;;;;;11.23;59.87;98873.56;5054374;28;20183;-72
2021/11/28 08:46:24;;;;;;;33.17;16.07;;;;;;;10.16;61.89;98882.56;5053884;28;20179;-71
2021/11/28 08:48:50;;;;;;;29.77;16.77;;;;;;;10.87;60.91;98889.09;5036553;28;20201;-71
2021/11/28 08:51:15;;;;;;;31.90;16.67;;;;;;;10.88;60.07;98876.59;5037613;28;20225;-72
2021/11/28 08:53:41;;;;;;;27.90;15.17;;;;;;;10.68;59.94;98869.41;5054467;28;20188;-72
2021/11/28 08:56:07;;;;;;;29.37;16.37;;;;;;;10.59;61.26;98884.38;5054105;28;20172;-72
2021/11/28 08:58:32;;;;;;;26.43;14.67;;;;;;;10.06;61.71;98884.28;5054021;28;20629;-71
2021/11/28 09:00:58;;;;;;;32.27;16.73;;;;;;;11.37;59.09;98872.34;5037064;28;20196;-74
2021/11/28 09:03:23;;;;;;;22.63;11.77;;;;;;;9.42;60.80;98878.78;5036297;28;20175;-73
2021/11/28 09:05:48;;;;;;;30.37;15.43;;;;;;;10.44;60.69;98891.00;5054352;28;20183;-73
2021/11/28 09:08:14;;;;;;;31.53;16.90;;;;;;;11.05;59.77;98893.81;5036602;28;20168;-73
2021/11/28 09:10:41;;;;;;;32.10;16.47;;;;;;;11.07;59.68;98897.19;5079812;22;20314;-69
2021/11/28 09:13:07;;;;;;;33.70;17.30;;;;;;;11.54;59.00;98896.63;5036732;28;20651;-68
2021/11/28 09:15:32;;;;;;;29.03;15.43;;;;;;;11.16;58.24;98888.44;5054960;28;20182;-68
2021/11/28 09:18:02;;;;;;;29.13;16.87;;;;;;;11.25;58.96;98899.16;5054940;28;20223;-69
2021/11/28 09:20:28;;;;;;;32.70;16.40;;;;;;;11.44;58.84;98894.88;5055751;28;20226;-68
2021/11/28 09:25:22;;;;;;;35.87;17.47;;;;;;;10.84;60.42;98909.84;5048517;28;20176;-69
2021/11/28 09:27:49;;;;;;;43.50;17.70;;;;;;;10.87;60.25;98902.44;5031632;28;20547;-68
2021/11/28 09:30:16;;;;;;;33.07;17.83;;;;;;;11.16;60.55;98917.78;5047635;28;20282;-68
2021/11/28 09:32:41;;;;;;;43.47;18.90;;;;;;;10.30;60.28;98903.63;5048125;28;20270;-69
2021/11/28 09:35:07;;;;;;;43.00;18.77;;;;;;;11.81;58.72;98900.53;5046770;28;20247;-69
2021/11/28 09:37:33;;;;;;;36.40;18.77;;;;;;;11.36;58.97;98892.03;5065479;28;20661;-69
2021/11/28 09:39:58;;;;;;;35.07;18.47;;;;;;;11.12;59.54;98894.97;5047729;28;20189;-69
2021/11/28 09:42:37;;;;;;;38.33;18.50;;;;;;;11.31;59.28;98900.44;5046056;28;20167;-69
2021/11/28 09:45:03;;;;;;;32.93;17.43;;;;;;;11.02;60.58;98905.59;5037314;28;20171;-68
2021/11/28 09:47:31;;;;;;;38.30;18.33;;;;;;;11.16;60.39;98907.97;5055411;28;20178;-69
2021/11/28 09:49:57;;;;;;;43.27;18.93;;;;;;;12.01;59.17;98904.97;5054077;28;20191;-70
2021/11/28 09:52:24;;;;;;;37.67;18.67;;;;;;;12.18;58.59;98916.84;5036125;28;20231;-68
2021/11/28 09:54:52;;;;;;;34.50;18.13;;;;;;;10.25;60.42;98897.81;5035417;28;20173;-68
2021/11/28 09:57:19;;;;;;;32.60;17.10;;;;;;;11.36;60.19;98903.56;5035951;28;20229;-71
2021/11/28 09:59:46;;;;;;;38.37;17.57;;;;;;;10.72;60.40;98892.19;5036299;28;20190;-68
2021/11/28 10:02:23;;;;;;;33.70;18.43;;;;;;;11.79;58.79;98897.16;5053264;28;20204;-68
2021/11/28 10:04:49;;;;;;;35.67;17.80;;;;;;;12.24;58.03;98886.84;5053269;28;20254;-67
2021/11/28 10:07:15;;;;;;;39.23;18.90;;;;;;;12.35;57.01;98885.91;5053269;28;20263;-68
2021/11/28 10:09:41;;;;;;;37.30;17.70;;;;;;;12.77;57.43;98881.97;5036187;28;20781;-68
2021/11/28 10:12:28;;;;;;;33.57;17.57;;;;;;;11.61;59.50;98890.75;5034909;28;20227;-69
2021/11/28 10:14:55;;;;;;;32.13;16.53;;;;;;;11.77;58.58;98880.38;5036528;28;20156;-68
2021/11/28 10:17:24;;;;;;;35.67;18.50;;;;;;;11.41;60.07;98893.31;5057062;28;20175;-67
2021/11/28 10:19:49;;;;;;;32.47;18.03;;;;;;;10.34;61.14;98886.41;5057169;28;20192;-68
2021/11/28 10:22:15;;;;;;;38.37;18.27;;;;;;;11.20;60.30;98892.53;5057247;28;20537;-68
2021/11/28 10:25:07;;;;;;;34.93;17.77;;;;;;;11.45;59.19;98881.38;5057084;28;20198;-68
2021/11/28 10:27:52;;;;;;;36.00;18.43;;;;;;;11.51;60.57;98888.84;5057209;28;20616;-69
2021/11/28 10:30:26;;;;;;;34.27;18.40;;;;;;;11.63;59.94;98897.66;5039500;28;20191;-69
2021/11/28 10:32:51;;;;;;;39.27;19.47;;;;;;;11.17;61.27;98887.44;5044384;28;20213;-69
2021/11/28 10:35:21;;;;;;;39.97;17.87;;;;;;;10.68;61.55;98888.94;5047480;28;20192;-69
2021/11/28 10:37:51;;;;;;;34.97;18.27;;;;;;;12.35;58.90;98897.44;5048672;28;20222;-68
2021/11/28 10:40:27;;;;;;;35.37;19.03;;;;;;;13.16;56.82;98876.53;5049237;28;20192;-68
2021/11/28 10:43:16;;;;;;;31.97;17.47;;;;;;;12.50;57.14;98887.16;5067486;28;20162;-68
2021/11/28 10:45:49;;;;;;;43.43;19.70;;;;;;;11.74;59.21;98891.34;5068076;28;20156;-68
2021/11/28 10:48:21;;;;;;;41.27;19.63;;;;;;;11.95;58.66;98883.31;5033875;28;20171;-68
2021/11/28 10:50:47;;;;;;;31.73;17.03;;;;;;;11.73;59.33;98878.97;5067214;28;20192;-68
2021/11/28 10:53:21;;;;;;;37.90;19.83;;;;;;;12.90;57.44;98875.47;5066397;28;20565;-68
2021/11/28 10:55:51;;;;;;;35.03;16.97;;;;;;;13.52;56.10;98872.22;5067142;28;20173;-69
2021/11/28 10:58:27;;;;;;;33.13;18.97;;;;;;;12.28;57.84;98874.06;5067246;28;20599;-69
2021/11/28 11:00:52;;;;;;;33.30;16.53;;;;;;;12.11;57.51;98862.22;5049071;28;20227;-68
2021/11/28 11:03:28;;;;;;;30.73;17.83;;;;;;;13.10;56.89;98879.81;5068401;28;20167;-68
2021/11/28 11:06:12;;;;;;;33.80;18.07;;;;;;;12.93;56.85;98880.53;5050830;28;20173;-67
2021/11/28 11:08:38;;;;;;;30.97;18.27;;;;;;;12.23;57.57;98873.63;5068952;28;20158;-68
2021/11/28 11:11:08;;;;;;;30.63;17.83;;;;;;;12.46;58.01;98880.41;5034480;28;20352;-68
2021/11/28 11:13:55;;;;;;;31.30;17.23;;;;;;;12.50;57.79;98880.00;5069133;28;20192;-69
2021/11/28 11:16:42;;;;;;;28.63;16.57;;;;;;;13.42;56.24;98871.44;5068777;28;20162;-69
2021/11/28 11:19:39;;;;;;;30.23;17.30;;;;;;;13.26;56.11;98869.34;5035075;28;20255;-69
2021/11/28 11:22:29;;;;;;;31.83;17.50;;;;;;;13.71;56.13;98876.66;5070615;28;20157;-68
2021/11/28 11:25:13;;;;;;;32.10;17.40;;;;;;;13.57;56.61;98885.19;5039325;28;20230;-70